Hauptseite
METAR-TAF:

METAR-TAF

Flughäfen :

Plzeň, Tschechien

Breite: 49-40-31N, Länge: 13-16-29E, Höhe: 362 m

Beobachtung

Neuester Wetterbericht von vor 17 Minuten, um 03:14 UTC
Wind 2 kt aus unterschiedlichen Richtungen
Temperatur 14°C
Luftfeuchtigkeit 100%
Luftdruck 1019 hPa
Sichtweite: 2600 m
Durchbrochene Bewölkung in der Höhe von 100 ft
Geschlossene Wolkendecke in der Höhe von 9600 ft
Leichtregen, feuchter Dunst

METAR: LKLN 250314Z AUTO VRB02KT 2600 -RA BR BKN001 OVC096 14/14 Q1019

Zeit: 05:31 (03:31 UTC)


TAF: fehlend

Wetterbeobachtungen und Prognosen von mehr als 4000 Flughäfen (METAR und TAF Bericht).

Die verfügbaren Stationen werden durch gelbe und rote Markierungen auf der Karte dargestellt.

Führen Sie die Maus auf sie, um den Namen der Station zu sehen.

Darauf klicken, um die Beobachtung von Wetterbeobachtungen und Prognosen zu sehen.

Um die Karte zu ändern : klicken Sie auf den grünen Tasten mit einem schwarzen Kreuz Zum Vergrößern, auf den grünen Button mit einem Gedankenstrich zu verkleinern, oder auf die grünen Pfeile für benachbarte Karten.


METAR-TAF: